Station Historical Data
 
Daily Summary for April 19, 2014 Units:  English    Metric   Both
« Previous Day
Next Day »
Daily Weekly Monthly Yearly Custom
  Current: High: Low: Average:
Temperature: 52.8 °F 54.2 °F 48.7 °F 50.6 °F
Dew Point: 48.4 °F 48.8 °F 46.2 °F 47.3 °F
Humidity: 85% 92% 82% 89%
Wind Speed: 2.0mph 2.0mph 0.0mph 0mph
Wind Gust: 5.0mph 6.0mph - -
WindNNE - - East
Pressure: 30.15 in 30.15 in 30.14 in -
Precipitation: 0.00 in      
Historical Graphs
 
 
Tabular Data for April 19, 2014
Time Temperature Dew Point Pressure Wind Wind Speed Wind Gust Humidity Rainfall Rate (Hourly) Conditions
00:00 54.1 °F 48.7 °F 30.15 in Calm     82% 0.00 in
00:01 54.2 °F 48.8 °F 30.15 in Calm     82% 0.00 in
00:02 54.2 °F 48.8 °F 30.15 in Calm     82% 0.00 in
00:07 54.1 °F 48.7 °F 30.15 in Calm     82% 0.00 in
00:12 53.9 °F 48.5 °F 30.15 in Calm     82% 0.00 in
00:17 53.6 °F 48.2 °F 30.15 in Calm     82% 0.00 in
00:22 53.3 °F 48.3 °F 30.15 in Calm     83% 0.00 in
00:27 53.0 °F 48.3 °F 30.15 in Calm     84% 0.00 in
00:32 52.9 °F 48.5 °F 30.15 in Calm     85% 0.00 in
00:37 52.9 °F 48.2 °F 30.15 in Calm     84% 0.00 in
00:42 52.8 °F 48.1 °F 30.15 in Calm     84% 0.00 in
00:47 52.6 °F 48.2 °F 30.14 in Calm     85% 0.00 in
00:52 52.8 °F 48.4 °F 30.15 in Calm     85% 0.00 in
00:57 53.0 °F 48.6 °F 30.15 in Calm     85% 0.00 in
01:02 52.8 °F 48.4 °F 30.15 in Calm     85% 0.00 in
01:07 52.5 °F 48.1 °F 30.15 in Calm     85% 0.00 in
01:12 52.4 °F 48.3 °F 30.15 in Calm     86% 0.00 in
01:17 52.3 °F 48.2 °F 30.15 in Calm     86% 0.00 in
01:22 52.3 °F 48.2 °F 30.15 in Calm     86% 0.00 in
01:27 52.3 °F 48.2 °F 30.15 in Calm     86% 0.00 in
01:32 52.2 °F 48.2 °F 30.15 in Calm     86% 0.00 in
01:36 52.0 °F 48.0 °F 30.15 in Calm     86% 0.00 in
01:41 51.6 °F 47.6 °F 30.15 in Calm     86% 0.00 in
01:46 51.6 °F 47.9 °F 30.15 in Calm     87% 0.00 in
01:51 52.0 °F 48.3 °F 30.15 in West 1.0 mph 1.0 mph 87% 0.00 in
01:56 52.2 °F 48.5 °F 30.15 in Calm     87% 0.00 in
02:01 52.0 °F 48.3 °F 30.15 in Calm     87% 0.00 in
02:06 51.8 °F 48.1 °F 30.15 in Calm     87% 0.00 in
02:11 51.5 °F 48.1 °F 30.15 in Calm     88% 0.00 in
02:16 51.3 °F 47.9 °F 30.15 in Calm     88% 0.00 in
02:21 51.2 °F 48.1 °F 30.15 in Calm     89% 0.00 in
02:26 51.2 °F 48.1 °F 30.15 in Calm     89% 0.00 in
02:31 51.1 °F 48.0 °F 30.15 in Calm     89% 0.00 in
02:35 51.0 °F 47.9 °F 30.14 in Calm     89% 0.00 in
02:40 50.7 °F 47.6 °F 30.14 in Calm     89% 0.00 in
02:45 50.4 °F 47.3 °F 30.14 in Calm     89% 0.00 in
02:50 50.4 °F 47.6 °F 30.14 in Calm     90% 0.00 in
02:55 50.6 °F 47.5 °F 30.14 in Calm     89% 0.00 in
03:00 50.6 °F 47.5 °F 30.14 in Calm     89% 0.00 in
03:05 50.6 °F 47.5 °F 30.14 in Calm     89% 0.00 in
03:10 50.6 °F 47.8 °F 30.14 in Calm     90% 0.00 in
03:15 50.6 °F 47.5 °F 30.14 in Calm     89% 0.00 in
03:20 50.5 °F 47.4 °F 30.14 in Calm     89% 0.00 in
03:25 50.4 °F 47.3 °F 30.14 in Calm     89% 0.00 in
03:30 50.1 °F 47.0 °F 30.14 in Calm     89% 0.00 in
03:35 49.9 °F 46.8 °F 30.14 in Calm     89% 0.00 in
03:40 49.9 °F 47.1 °F 30.14 in Calm     90% 0.00 in
03:45 49.8 °F 47.0 °F 30.14 in Calm     90% 0.00 in
03:50 49.8 °F 47.0 °F 30.14 in Calm     90% 0.00 in
03:55 49.8 °F 47.0 °F 30.14 in Calm     90% 0.00 in
04:00 49.8 °F 47.0 °F 30.14 in Calm     90% 0.00 in
04:05 49.7 °F 46.9 °F 30.14 in Calm     90% 0.00 in
04:10 49.7 °F 46.9 °F 30.14 in Calm     90% 0.00 in
04:15 49.7 °F 46.9 °F 30.14 in Calm     90% 0.00 in
04:20 49.6 °F 46.8 °F 30.14 in Calm     90% 0.00 in
04:25 49.5 °F 46.7 °F 30.14 in Calm     90% 0.00 in
04:30 49.3 °F 46.5 °F 30.14 in Calm     90% 0.00 in
04:35 49.4 °F 46.6 °F 30.14 in Calm     90% 0.00 in
04:40 49.4 °F 46.6 °F 30.14 in Calm     90% 0.00 in
04:45 49.4 °F 46.6 °F 30.14 in Calm     90% 0.00 in
04:50 49.3 °F 46.5 °F 30.14 in Calm     90% 0.00 in
04:55 49.2 °F 46.7 °F 30.14 in Calm     91% 0.00 in
05:00 49.2 °F 46.7 °F 30.14 in Calm     91% 0.00 in
05:05 49.0 °F 46.5 °F 30.14 in Calm     91% 0.00 in
05:11 48.9 °F 46.4 °F 30.14 in Calm     91% 0.00 in
05:16 48.8 °F 46.3 °F 30.14 in Calm     91% 0.00 in
05:21 48.7 °F 46.2 °F 30.14 in Calm     91% 0.00 in
05:26 48.7 °F 46.2 °F 30.14 in Calm     91% 0.00 in
05:31 48.7 °F 46.2 °F 30.14 in Calm     91% 0.00 in
05:36 48.7 °F 46.5 °F 30.14 in Calm     92% 0.00 in
05:41 48.8 °F 46.6 °F 30.14 in Calm     92% 0.00 in
05:46 48.8 °F 46.6 °F 30.14 in Calm     92% 0.00 in
05:51 48.8 °F 46.3 °F 30.14 in Calm     91% 0.00 in
05:56 48.7 °F 46.5 °F 30.14 in Calm     92% 0.00 in
06:01 48.7 °F 46.5 °F 30.14 in Calm     92% 0.00 in
06:06 48.7 °F 46.5 °F 30.14 in Calm     92% 0.00 in
06:11 49.1 °F 46.9 °F 30.14 in Calm   1.0 mph 92% 0.00 in
06:16 49.6 °F 47.1 °F 30.14 in Calm   2.0 mph 91% 0.00 in
06:21 49.8 °F 47.3 °F 30.14 in Calm     91% 0.00 in
06:26 49.8 °F 47.0 °F 30.14 in Calm     90% 0.00 in
06:31 49.8 °F 47.0 °F 30.14 in Calm     90% 0.00 in
06:36 49.8 °F 47.0 °F 30.14 in NE 1.0 mph 1.0 mph 90% 0.00 in
06:41 50.0 °F 47.2 °F 30.14 in Calm   3.0 mph 90% 0.00 in
06:46 49.8 °F 46.7 °F 30.14 in Calm   1.0 mph 89% 0.00 in
06:51 49.6 °F 46.5 °F 30.14 in Calm     89% 0.00 in
06:56 49.5 °F 46.7 °F 30.14 in Calm     90% 0.00 in
07:01 49.3 °F 46.5 °F 30.14 in Calm   1.0 mph 90% 0.00 in
07:06 49.3 °F 46.5 °F 30.14 in Calm     90% 0.00 in
07:11 49.1 °F 46.3 °F 30.14 in Calm     90% 0.00 in
07:16 49.0 °F 46.2 °F 30.14 in Calm     90% 0.00 in
07:21 48.9 °F 46.4 °F 30.14 in Calm     91% 0.00 in
07:26 49.0 °F 46.5 °F 30.15 in Calm     91% 0.00 in
07:31 49.1 °F 46.6 °F 30.15 in Calm     91% 0.00 in
07:36 49.2 °F 46.7 °F 30.15 in Calm     91% 0.00 in
07:41 49.3 °F 46.8 °F 30.15 in Calm     91% 0.00 in
07:46 49.4 °F 46.6 °F 30.15 in Calm     90% 0.00 in
07:51 49.7 °F 47.2 °F 30.15 in Calm   4.0 mph 91% 0.00 in
07:56 50.4 °F 47.3 °F 30.15 in Calm   3.0 mph 89% 0.00 in
08:01 50.6 °F 47.5 °F 30.15 in Calm   2.0 mph 89% 0.00 in
08:06 50.8 °F 47.4 °F 30.15 in Calm   1.0 mph 88% 0.00 in
08:12 50.7 °F 47.3 °F 30.15 in Calm     88% 0.00 in
08:17 50.7 °F 47.3 °F 30.15 in Calm   3.0 mph 88% 0.00 in
08:22 51.6 °F 47.9 °F 30.15 in Calm   6.0 mph 87% 0.00 in
08:27 52.0 °F 48.0 °F 30.15 in NNE 1.0 mph 3.0 mph 86% 0.00 in
08:32 52.8 °F 48.4 °F 30.15 in NNE 2.0 mph 5.0 mph 85% 0.00 in
Compliments of Weather Underground